Chicago, Illinois
Traffic Map
Current Weather Conditions
Chicago, Illinois
Few Clouds
Few Clouds
-4°
Feels Like: -11°
Wind Chill: -11° Ceiling: Unl
Heat Index: -4° Visibility: 10mi
Dew Point: -11° Wind: 12mph
Humidity: 62% Direction: 320° (NW)
Pressure: 30.51in Gusts: 0mph
Raw Report DataKMDW 021453Z 32010KT 10SM FEW250 M04/M11 A3051 RMK AO2 SLP349 T10441106 51015
Traffic Incident Summary
Active as of:
Severity:
Category:
InformationThere was an issue retrieving the traffic information for this location. Please try a different location or try again shortly.
Advertisements
Track Severe Weather on mobile